<?xml version='1.0' encoding='UTF-8'?><gpx version="1.1" creator="JPX - https://github.com/jenetics/jpx" xmlns="http://www.topografix.com/GPX/1/1"><trk><trkseg><trkpt lat="45.508537202494985" lon="9.104549729429202"><ele>139.0</ele><time>2026-04-01T05:57:44.025Z</time></trkpt><trkpt lat="45.50866920505232" lon="9.104659175508752"><ele>139.0</ele><time>2026-04-01T05:57:45.514Z</time></trkpt><trkpt lat="45.508918105667" lon="9.104596897968188"><ele>139.0</ele><time>2026-04-01T05:57:47.514Z</time></trkpt><trkpt lat="45.50896906763828" lon="9.104521460839644"><ele>137.0</ele><time>2026-04-01T05:57:48.512Z</time></trkpt><trkpt lat="45.509196803947454" lon="9.1044494602914"><ele>135.0</ele><time>2026-04-01T05:57:50.519Z</time></trkpt><trkpt lat="45.50875939433045" lon="9.104582648732796"><ele>135.0</ele><time>2026-04-01T05:57:51.521Z</time></trkpt><trkpt lat="45.50877210411149" lon="9.104463925499367"><ele>135.0</ele><time>2026-04-01T05:57:58.009Z</time></trkpt><trkpt lat="45.50884585639802" lon="9.104395194932652"><ele>135.0</ele><time>2026-04-01T05:58:00.009Z</time></trkpt><trkpt lat="45.508898623510824" lon="9.104296358873782"><ele>135.0</ele><time>2026-04-01T05:58:02.009Z</time></trkpt><trkpt lat="45.509024119142744" lon="9.104027241483884"><ele>135.0</ele><time>2026-04-01T05:58:26.456Z</time></trkpt><trkpt lat="45.50882494194461" lon="9.104303906623562"><ele>135.0</ele><time>2026-04-01T05:58:45.191Z</time></trkpt><trkpt lat="45.50863351426976" lon="9.10460975508517"><ele>136.0</ele><time>2026-04-01T05:58:54.002Z</time></trkpt><trkpt lat="45.50856463039289" lon="9.104583616005096"><ele>137.0</ele><time>2026-04-01T05:58:55.003Z</time></trkpt><trkpt lat="45.50848351659608" lon="9.104574764509833"><ele>138.0</ele><time>2026-04-01T05:58:56.004Z</time></trkpt><trkpt lat="45.5084097288548" lon="9.104577013096328"><ele>139.0</ele><time>2026-04-01T05:58:57.009Z</time></trkpt><trkpt lat="45.508730122250576" lon="9.104643481659773"><ele>138.33333333333334</ele><time>2026-04-01T05:58:58.007Z</time></trkpt><trkpt lat="45.50878674101268" lon="9.104567913501297"><ele>137.66666666666669</ele><time>2026-04-01T05:59:00.006Z</time></trkpt><trkpt lat="45.50883339984643" lon="9.104487110118173"><ele>137.0</ele><time>2026-04-01T05:59:01.004Z</time></trkpt><trkpt lat="45.50892839835067" lon="9.104477900943522"><ele>136.33333333333334</ele><time>2026-04-01T05:59:02.005Z</time></trkpt><trkpt lat="45.50901299024457" lon="9.104487433366694"><ele>135.66666666666666</ele><time>2026-04-01T05:59:03.002Z</time></trkpt><trkpt lat="45.50910186153411" lon="9.104538063555026"><ele>135.0</ele><time>2026-04-01T05:59:04.004Z</time></trkpt><trkpt lat="45.509196517364394" lon="9.104619804301553"><ele>135.0</ele><time>2026-04-01T05:59:05.005Z</time></trkpt><trkpt lat="45.50927365117655" lon="9.104688322827958"><ele>135.0</ele><time>2026-04-01T05:59:06.006Z</time></trkpt><trkpt lat="45.50932910996675" lon="9.10476109807462"><ele>135.0</ele><time>2026-04-01T05:59:07.008Z</time></trkpt><trkpt lat="45.509317159655794" lon="9.104913494990223"><ele>135.0</ele><time>2026-04-01T05:59:09.005Z</time></trkpt><trkpt lat="45.50926248128935" lon="9.104989489159115"><ele>135.0</ele><time>2026-04-01T05:59:10.005Z</time></trkpt><trkpt lat="45.50918405931551" lon="9.105060669678304"><ele>135.0</ele><time>2026-04-01T05:59:11.009Z</time></trkpt><trkpt lat="45.50913529760931" lon="9.10513844650254"><ele>134.83333333333334</ele><time>2026-04-01T05:59:12.004Z</time></trkpt><trkpt lat="45.509105418381395" lon="9.105239547261478"><ele>134.66666666666666</ele><time>2026-04-01T05:59:13.004Z</time></trkpt><trkpt lat="45.509039425371114" lon="9.105284159998526"><ele>134.5</ele><time>2026-04-01T05:59:14.009Z</time></trkpt><trkpt lat="45.50899545994709" lon="9.105401852222336"><ele>134.33333333333331</ele><time>2026-04-01T05:59:16.007Z</time></trkpt><trkpt lat="45.50894800107515" lon="9.105473440532997"><ele>134.16666666666666</ele><time>2026-04-01T05:59:18.009Z</time></trkpt><trkpt lat="45.50888492814997" lon="9.105543914119227"><ele>134.0</ele><time>2026-04-01T05:59:20.008Z</time></trkpt><trkpt lat="45.50879028710196" lon="9.105577749869187"><ele>134.4</ele><time>2026-04-01T05:59:22.006Z</time></trkpt><trkpt lat="45.50873739902338" lon="9.105729420305815"><ele>134.8</ele><time>2026-04-01T05:59:24.005Z</time></trkpt><trkpt lat="45.50872393247321" lon="9.105893773298105"><ele>135.2</ele><time>2026-04-01T05:59:26.004Z</time></trkpt><trkpt lat="45.50867388206778" lon="9.106014529339783"><ele>135.6</ele><time>2026-04-01T05:59:28.007Z</time></trkpt><trkpt lat="45.5086573925713" lon="9.10611669441368"><ele>136.0</ele><time>2026-04-01T05:59:30.005Z</time></trkpt><trkpt lat="45.508619241152964" lon="9.10622223031368"><ele>136.2</ele><time>2026-04-01T05:59:32.007Z</time></trkpt><trkpt lat="45.50857887143792" lon="9.106315952559616"><ele>136.39999999999998</ele><time>2026-04-01T05:59:33.009Z</time></trkpt><trkpt lat="45.508528529418435" lon="9.106426836599333"><ele>136.6</ele><time>2026-04-01T05:59:34.01Z</time></trkpt><trkpt lat="45.50846402936333" lon="9.106568367036372"><ele>136.79999999999998</ele><time>2026-04-01T05:59:35.01Z</time></trkpt><trkpt lat="45.50838585313641" lon="9.106732851777005"><ele>137.0</ele><time>2026-04-01T05:59:36.008Z</time></trkpt><trkpt lat="45.50829058417528" lon="9.106858346536491"><ele>137.0</ele><time>2026-04-01T05:59:37.009Z</time></trkpt><trkpt lat="45.50824721196541" lon="9.106983769567972"><ele>137.0</ele><time>2026-04-01T05:59:38.003Z</time></trkpt><trkpt lat="45.50819124381871" lon="9.107067469028497"><ele>137.0</ele><time>2026-04-01T05:59:39.006Z</time></trkpt><trkpt lat="45.50813889051951" lon="9.10714848386357"><ele>137.0</ele><time>2026-04-01T05:59:40.009Z</time></trkpt><trkpt lat="45.50810337480285" lon="9.107230331982546"><ele>137.0</ele><time>2026-04-01T05:59:41.005Z</time></trkpt><trkpt lat="45.50816537595643" lon="9.107348923283931"><ele>137.0</ele><time>2026-04-01T05:59:43.01Z</time></trkpt><trkpt lat="45.50821750806478" lon="9.107404016853792"><ele>137.0</ele><time>2026-04-01T05:59:44.008Z</time></trkpt><trkpt lat="45.5083076123613" lon="9.10740096330776"><ele>137.0</ele><time>2026-04-01T05:59:45.004Z</time></trkpt><trkpt lat="45.50840664553923" lon="9.107394795290704"><ele>137.0</ele><time>2026-04-01T05:59:46.005Z</time></trkpt><trkpt lat="45.50851374379724" lon="9.107450915135043"><ele>137.0</ele><time>2026-04-01T05:59:47.013Z</time></trkpt><trkpt lat="45.50862425750249" lon="9.107519981172189"><ele>137.0</ele><time>2026-04-01T05:59:48.008Z</time></trkpt><trkpt lat="45.50873875247476" lon="9.107613349017521"><ele>136.5</ele><time>2026-04-01T05:59:49.01Z</time></trkpt><trkpt lat="45.50885544987066" lon="9.10771502218545"><ele>136.0</ele><time>2026-04-01T05:59:50.011Z</time></trkpt><trkpt lat="45.50898955734753" lon="9.107814623277916"><ele>135.5</ele><time>2026-04-01T05:59:51.007Z</time></trkpt><trkpt lat="45.509111290511285" lon="9.107938890362915"><ele>135.0</ele><time>2026-04-01T05:59:52.005Z</time></trkpt><trkpt lat="45.50923987509224" lon="9.108053911339788"><ele>135.0</ele><time>2026-04-01T05:59:53.007Z</time></trkpt><trkpt lat="45.50936328587166" lon="9.108159457553862"><ele>135.0</ele><time>2026-04-01T05:59:54.003Z</time></trkpt><trkpt lat="45.50946738233677" lon="9.108253188189138"><ele>135.0</ele><time>2026-04-01T05:59:54.984Z</time></trkpt><trkpt lat="45.509563666890266" lon="9.10833842605063"><ele>135.0</ele><time>2026-04-01T05:59:55.985Z</time></trkpt><trkpt lat="45.509653068889115" lon="9.108419534637935"><ele>135.5</ele><time>2026-04-01T05:59:56.986Z</time></trkpt><trkpt lat="45.50974602489534" lon="9.108507101785712"><ele>136.0</ele><time>2026-04-01T05:59:57.987Z</time></trkpt><trkpt lat="45.50984579627587" lon="9.108595828576993"><ele>136.5</ele><time>2026-04-01T05:59:58.988Z</time></trkpt><trkpt lat="45.509948978163585" lon="9.108688385600214"><ele>137.0</ele><time>2026-04-01T05:59:59.988Z</time></trkpt><trkpt lat="45.51005335881826" lon="9.108801949276817"><ele>137.0</ele><time>2026-04-01T06:00:00.989Z</time></trkpt><trkpt lat="45.5101695802542" lon="9.10891220403922"><ele>137.0</ele><time>2026-04-01T06:00:01.99Z</time></trkpt><trkpt lat="45.51029675458194" lon="9.109025299189657"><ele>137.0</ele><time>2026-04-01T06:00:02.991Z</time></trkpt><trkpt lat="45.51042275518798" lon="9.10913861907712"><ele>137.0</ele><time>2026-04-01T06:00:03.991Z</time></trkpt><trkpt lat="45.51054721160587" lon="9.10925494305835"><ele>137.0</ele><time>2026-04-01T06:00:04.992Z</time></trkpt><trkpt lat="45.51065463140291" lon="9.109366926844835"><ele>137.0</ele><time>2026-04-01T06:00:05.992Z</time></trkpt><trkpt lat="45.510743780381034" lon="9.109498451501935"><ele>137.0</ele><time>2026-04-01T06:00:06.993Z</time></trkpt><trkpt lat="45.5108157324623" lon="9.109655384456625"><ele>137.0</ele><time>2026-04-01T06:00:07.993Z</time></trkpt><trkpt lat="45.510866954797464" lon="9.109847319871824"><ele>137.0</ele><time>2026-04-01T06:00:08.994Z</time></trkpt><trkpt lat="45.51090270361921" lon="9.110057472602909"><ele>137.0</ele><time>2026-04-01T06:00:09.994Z</time></trkpt><trkpt lat="45.51093178055431" lon="9.110278855071346"><ele>137.0</ele><time>2026-04-01T06:00:10.995Z</time></trkpt><trkpt lat="45.51096130638618" lon="9.110513011092241"><ele>137.33333333333331</ele><time>2026-04-01T06:00:11.995Z</time></trkpt><trkpt lat="45.51099781265486" lon="9.110761673488092"><ele>137.66666666666666</ele><time>2026-04-01T06:00:12.995Z</time></trkpt><trkpt lat="45.511041894917376" lon="9.111006241444565"><ele>138.0</ele><time>2026-04-01T06:00:13.996Z</time></trkpt><trkpt lat="45.51108238174319" lon="9.11124389233881"><ele>138.0</ele><time>2026-04-01T06:00:14.996Z</time></trkpt><trkpt lat="45.51111714032474" lon="9.111459481511208"><ele>138.0</ele><time>2026-04-01T06:00:15.996Z</time></trkpt><trkpt lat="45.51114621220205" lon="9.111666113041004"><ele>138.0</ele><time>2026-04-01T06:00:16.996Z</time></trkpt><trkpt lat="45.51115976905336" lon="9.111868321042424"><ele>138.0</ele><time>2026-04-01T06:00:17.997Z</time></trkpt><trkpt lat="45.511139830546924" lon="9.112069907471309"><ele>138.0</ele><time>2026-04-01T06:00:18.997Z</time></trkpt><trkpt lat="45.5110763518597" lon="9.112264332123114"><ele>138.0</ele><time>2026-04-01T06:00:19.997Z</time></trkpt><trkpt lat="45.51099145642033" lon="9.112436152742223"><ele>138.0</ele><time>2026-04-01T06:00:20.997Z</time></trkpt><trkpt lat="45.510896455663485" lon="9.112618809955487"><ele>138.0</ele><time>2026-04-01T06:00:21.997Z</time></trkpt><trkpt lat="45.51079896804801" lon="9.112811950236384"><ele>138.0</ele><time>2026-04-01T06:00:22.997Z</time></trkpt><trkpt lat="45.510701060623276" lon="9.113015955701123"><ele>138.0</ele><time>2026-04-01T06:00:23.998Z</time></trkpt><trkpt lat="45.51060334035596" lon="9.11322523657352"><ele>137.66666666666666</ele><time>2026-04-01T06:00:24.998Z</time></trkpt><trkpt lat="45.51050380909565" lon="9.113431408027724"><ele>137.33333333333331</ele><time>2026-04-01T06:00:25.998Z</time></trkpt><trkpt lat="45.51042120265393" lon="9.113655445586726"><ele>137.0</ele><time>2026-04-01T06:00:26.998Z</time></trkpt><trkpt lat="45.51031019338093" lon="9.113854051312034"><ele>137.0</ele><time>2026-04-01T06:00:27.998Z</time></trkpt><trkpt lat="45.510206490158865" lon="9.114080839755106"><ele>137.0</ele><time>2026-04-01T06:00:28.998Z</time></trkpt><trkpt lat="45.51010091568842" lon="9.114306343914414"><ele>137.0</ele><time>2026-04-01T06:00:29.998Z</time></trkpt><trkpt lat="45.510001036004624" lon="9.114534197166895"><ele>137.0</ele><time>2026-04-01T06:00:30.998Z</time></trkpt><trkpt lat="45.50989925934264" lon="9.11475632855203"><ele>137.0</ele><time>2026-04-01T06:00:31.998Z</time></trkpt><trkpt lat="45.509788463880845" lon="9.114979631926802"><ele>137.0</ele><time>2026-04-01T06:00:32.999Z</time></trkpt><trkpt lat="45.50956941639593" lon="9.115424148445197"><ele>137.33333333333331</ele><time>2026-04-01T06:00:34.999Z</time></trkpt><trkpt lat="45.50946845295061" lon="9.115642275676617"><ele>137.66666666666666</ele><time>2026-04-01T06:00:35.999Z</time></trkpt><trkpt lat="45.50937077293711" lon="9.11585527589206"><ele>138.0</ele><time>2026-04-01T06:00:36.999Z</time></trkpt><trkpt lat="45.509279377956496" lon="9.116072301215501"><ele>137.33333333333334</ele><time>2026-04-01T06:00:37.999Z</time></trkpt><trkpt lat="45.50918185137855" lon="9.11628105797711"><ele>136.66666666666669</ele><time>2026-04-01T06:00:38.999Z</time></trkpt><trkpt lat="45.50909564940626" lon="9.116490049866133"><ele>136.0</ele><time>2026-04-01T06:00:39.999Z</time></trkpt><trkpt lat="45.50900447005151" lon="9.116692392858408"><ele>136.0</ele><time>2026-04-01T06:00:40.999Z</time></trkpt><trkpt lat="45.50891888245079" lon="9.116894891992995"><ele>136.0</ele><time>2026-04-01T06:00:41.999Z</time></trkpt><trkpt lat="45.508831208483194" lon="9.1170941863981"><ele>136.0</ele><time>2026-04-01T06:00:42.999Z</time></trkpt><trkpt lat="45.50874163871598" lon="9.117291386973228"><ele>135.66666666666669</ele><time>2026-04-01T06:00:43.999Z</time></trkpt><trkpt lat="45.5086532831" lon="9.11749051968423"><ele>135.33333333333334</ele><time>2026-04-01T06:00:44.999Z</time></trkpt><trkpt lat="45.50856038102525" lon="9.11769075727724"><ele>135.0</ele><time>2026-04-01T06:00:45.999Z</time></trkpt><trkpt lat="45.50847624483672" lon="9.11789396588342"><ele>135.0</ele><time>2026-04-01T06:00:46.999Z</time></trkpt><trkpt lat="45.508381884783674" lon="9.11810267078066"><ele>135.0</ele><time>2026-04-01T06:00:47.999Z</time></trkpt><trkpt lat="45.508292547957836" lon="9.11831249266566"><ele>135.0</ele><time>2026-04-01T06:00:48.999Z</time></trkpt><trkpt lat="45.508197638852025" lon="9.118517019910016"><ele>135.0</ele><time>2026-04-01T06:00:49.999Z</time></trkpt><trkpt lat="45.50810228213532" lon="9.118730847289568"><ele>135.0</ele><time>2026-04-01T06:00:50.999Z</time></trkpt><trkpt lat="45.5080045521598" lon="9.118942960946143"><ele>135.0</ele><time>2026-04-01T06:00:51.999Z</time></trkpt><trkpt lat="45.50790686760385" lon="9.119156292867634"><ele>135.0</ele><time>2026-04-01T06:00:52.999Z</time></trkpt><trkpt lat="45.50780380311225" lon="9.11937530648501"><ele>135.0</ele><time>2026-04-01T06:00:53.999Z</time></trkpt><trkpt lat="45.50769916416105" lon="9.119578685961562"><ele>135.0</ele><time>2026-04-01T06:00:54.999Z</time></trkpt><trkpt lat="45.50760129792824" lon="9.119794322521905"><ele>135.0</ele><time>2026-04-01T06:00:55.999Z</time></trkpt><trkpt lat="45.50749795701754" lon="9.12000165300876"><ele>135.0</ele><time>2026-04-01T06:00:56.999Z</time></trkpt><trkpt lat="45.507397234522074" lon="9.120221915819805"><ele>135.0</ele><time>2026-04-01T06:00:57.999Z</time></trkpt><trkpt lat="45.5072938235151" lon="9.1204430175023"><ele>135.0</ele><time>2026-04-01T06:00:58.999Z</time></trkpt><trkpt lat="45.507193315313344" lon="9.120666875265607"><ele>135.0</ele><time>2026-04-01T06:00:59.999Z</time></trkpt><trkpt lat="45.507093753286384" lon="9.120888572073856"><ele>135.0</ele><time>2026-04-01T06:01:00.999Z</time></trkpt><trkpt lat="45.50699131170149" lon="9.121103735670856"><ele>134.66666666666666</ele><time>2026-04-01T06:01:01.999Z</time></trkpt><trkpt lat="45.50689185162322" lon="9.121316053109766"><ele>134.33333333333331</ele><time>2026-04-01T06:01:02.999Z</time></trkpt><trkpt lat="45.50679883138393" lon="9.121523873778928"><ele>134.0</ele><time>2026-04-01T06:01:03.999Z</time></trkpt><trkpt lat="45.50670849433189" lon="9.121727484683618"><ele>134.0</ele><time>2026-04-01T06:01:04.999Z</time></trkpt><trkpt lat="45.506622190468875" lon="9.12191209719686"><ele>134.0</ele><time>2026-04-01T06:01:05.999Z</time></trkpt><trkpt lat="45.50654760722804" lon="9.122075407507099"><ele>134.0</ele><time>2026-04-01T06:01:06.999Z</time></trkpt><trkpt lat="45.50646714142414" lon="9.122227923837952"><ele>134.0</ele><time>2026-04-01T06:01:07.999Z</time></trkpt><trkpt lat="45.50641626384831" lon="9.122356332793167"><ele>134.2</ele><time>2026-04-01T06:01:08.999Z</time></trkpt><trkpt lat="45.50635358897629" lon="9.12246484694287"><ele>134.4</ele><time>2026-04-01T06:01:09.999Z</time></trkpt><trkpt lat="45.50631380260179" lon="9.122564746200592"><ele>134.6</ele><time>2026-04-01T06:01:10.999Z</time></trkpt><trkpt lat="45.50625502218813" lon="9.122647398352065"><ele>134.8</ele><time>2026-04-01T06:01:11.999Z</time></trkpt><trkpt lat="45.50618854307887" lon="9.122696270585909"><ele>135.0</ele><time>2026-04-01T06:01:12.999Z</time></trkpt><trkpt lat="45.50602413348931" lon="9.122509393632035"><ele>134.5</ele><time>2026-04-01T06:01:14.999Z</time></trkpt><trkpt lat="45.50591829161833" lon="9.122416763231671"><ele>134.0</ele><time>2026-04-01T06:01:15.999Z</time></trkpt><trkpt lat="45.50581288445273" lon="9.122322088648303"><ele>133.5</ele><time>2026-04-01T06:01:16.999Z</time></trkpt><trkpt lat="45.50568659191352" lon="9.122216408128411"><ele>133.0</ele><time>2026-04-01T06:01:17.999Z</time></trkpt><trkpt lat="45.50556321955491" lon="9.122102104008531"><ele>133.0</ele><time>2026-04-01T06:01:18.999Z</time></trkpt><trkpt lat="45.50544169162618" lon="9.12198786398139"><ele>133.0</ele><time>2026-04-01T06:01:19.999Z</time></trkpt><trkpt lat="45.50532832237014" lon="9.121878155386582"><ele>133.0</ele><time>2026-04-01T06:01:20.999Z</time></trkpt><trkpt lat="45.50522122829556" lon="9.12178762736543"><ele>133.0</ele><time>2026-04-01T06:01:21.999Z</time></trkpt><trkpt lat="45.505119957548395" lon="9.121699786740805"><ele>133.5</ele><time>2026-04-01T06:01:22.999Z</time></trkpt><trkpt lat="45.50502757343017" lon="9.121638479995813"><ele>134.0</ele><time>2026-04-01T06:01:23.999Z</time></trkpt><trkpt lat="45.50491193206582" lon="9.121643644014505"><ele>134.5</ele><time>2026-04-01T06:01:24.999Z</time></trkpt><trkpt lat="45.50480886464059" lon="9.121713758859034"><ele>135.0</ele><time>2026-04-01T06:01:25.999Z</time></trkpt><trkpt lat="45.504687781199614" lon="9.121785818830789"><ele>135.4</ele><time>2026-04-01T06:01:26.999Z</time></trkpt><trkpt lat="45.50457154282172" lon="9.121844810743164"><ele>135.8</ele><time>2026-04-01T06:01:27.999Z</time></trkpt><trkpt lat="45.50447143128238" lon="9.121899796637498"><ele>136.2</ele><time>2026-04-01T06:01:28.999Z</time></trkpt><trkpt lat="45.50439764306708" lon="9.121985720360373"><ele>136.6</ele><time>2026-04-01T06:01:29.999Z</time></trkpt><trkpt lat="45.50433777586151" lon="9.122121301795982"><ele>137.0</ele><time>2026-04-01T06:01:30.999Z</time></trkpt><trkpt lat="45.50428590295337" lon="9.122224259275942"><ele>137.0</ele><time>2026-04-01T06:01:31.999Z</time></trkpt><trkpt lat="45.50425357663878" lon="9.122307289744004"><ele>137.0</ele><time>2026-04-01T06:01:32.999Z</time></trkpt><trkpt lat="45.504168621677074" lon="9.122353395437228"><ele>137.0</ele><time>2026-04-01T06:01:33.999Z</time></trkpt><trkpt lat="45.50409897893609" lon="9.122384826302936"><ele>137.0</ele><time>2026-04-01T06:01:34.999Z</time></trkpt><trkpt lat="45.50398614654555" lon="9.12226378817002"><ele>137.0</ele><time>2026-04-01T06:01:35.999Z</time></trkpt><trkpt lat="45.50389734330602" lon="9.122183472385707"><ele>137.0</ele><time>2026-04-01T06:01:36.999Z</time></trkpt><trkpt lat="45.50380120279778" lon="9.12209787857482"><ele>137.0</ele><time>2026-04-01T06:01:37.999Z</time></trkpt><trkpt lat="45.5036968706683" lon="9.122011014775481"><ele>137.0</ele><time>2026-04-01T06:01:38.998Z</time></trkpt><trkpt lat="45.50363649140911" lon="9.12189267197486"><ele>137.0</ele><time>2026-04-01T06:01:39.998Z</time></trkpt><trkpt lat="45.50353235188422" lon="9.12182921598846"><ele>136.6</ele><time>2026-04-01T06:01:41.998Z</time></trkpt><trkpt lat="45.50343319530792" lon="9.121930385811421"><ele>136.2</ele><time>2026-04-01T06:01:43.998Z</time></trkpt><trkpt lat="45.503436249608804" lon="9.122061546520694"><ele>135.8</ele><time>2026-04-01T06:01:44.998Z</time></trkpt><trkpt lat="45.503397859887926" lon="9.122170492527749"><ele>135.4</ele><time>2026-04-01T06:01:45.998Z</time></trkpt><trkpt lat="45.50333627322613" lon="9.12230056152025"><ele>135.0</ele><time>2026-04-01T06:01:46.998Z</time></trkpt><trkpt lat="45.5032633239104" lon="9.122454628005807"><ele>135.0</ele><time>2026-04-01T06:01:47.998Z</time></trkpt><trkpt lat="45.50319566062323" lon="9.122644793780736"><ele>135.0</ele><time>2026-04-01T06:01:48.998Z</time></trkpt><trkpt lat="45.50310465008588" lon="9.12282142396733"><ele>135.0</ele><time>2026-04-01T06:01:49.998Z</time></trkpt><trkpt lat="45.503016877421494" lon="9.123012598496372"><ele>135.0</ele><time>2026-04-01T06:01:50.998Z</time></trkpt><trkpt lat="45.50292236525675" lon="9.123214583634898"><ele>135.0</ele><time>2026-04-01T06:01:51.998Z</time></trkpt><trkpt lat="45.502832246804736" lon="9.123418592832019"><ele>135.0</ele><time>2026-04-01T06:01:52.998Z</time></trkpt><trkpt lat="45.50275465290955" lon="9.12359478880236"><ele>135.25</ele><time>2026-04-01T06:01:53.998Z</time></trkpt><trkpt lat="45.50268493023897" lon="9.123754090363736"><ele>135.5</ele><time>2026-04-01T06:01:54.998Z</time></trkpt><trkpt lat="45.502620974209" lon="9.12390316615092"><ele>135.75</ele><time>2026-04-01T06:01:55.998Z</time></trkpt><trkpt lat="45.50255622138389" lon="9.12403481113869"><ele>136.0</ele><time>2026-04-01T06:01:56.998Z</time></trkpt><trkpt lat="45.50249843199137" lon="9.124155777325043"><ele>136.0</ele><time>2026-04-01T06:01:57.998Z</time></trkpt><trkpt lat="45.5024528625" lon="9.124245519780096"><ele>136.0</ele><time>2026-04-01T06:01:58.998Z</time></trkpt><trkpt lat="45.50239586601698" lon="9.124352475712564"><ele>136.0</ele><time>2026-04-01T06:01:59.998Z</time></trkpt><trkpt lat="45.502322623606524" lon="9.124491828206759"><ele>136.0</ele><time>2026-04-01T06:02:01.001Z</time></trkpt><trkpt lat="45.50222766662904" lon="9.124665111674917"><ele>136.0</ele><time>2026-04-01T06:02:02.001Z</time></trkpt><trkpt lat="45.502138906575034" lon="9.124858684072523"><ele>136.0</ele><time>2026-04-01T06:02:03.001Z</time></trkpt><trkpt lat="45.5020407966247" lon="9.125083470144506"><ele>136.0</ele><time>2026-04-01T06:02:04.001Z</time></trkpt><trkpt lat="45.50192412155417" lon="9.125330180471778"><ele>136.0</ele><time>2026-04-01T06:02:05.001Z</time></trkpt><trkpt lat="45.501836498277136" lon="9.12554774550677"><ele>136.0</ele><time>2026-04-01T06:02:06.001Z</time></trkpt><trkpt lat="45.501759321739044" lon="9.125744269180116"><ele>136.0</ele><time>2026-04-01T06:02:07.001Z</time></trkpt><trkpt lat="45.50168446210489" lon="9.1259223108397"><ele>136.0</ele><time>2026-04-01T06:02:08.001Z</time></trkpt><trkpt lat="45.50162916335953" lon="9.12608647686315"><ele>136.0</ele><time>2026-04-01T06:02:09Z</time></trkpt><trkpt lat="45.50157438351628" lon="9.126235042181282"><ele>136.0</ele><time>2026-04-01T06:02:10Z</time></trkpt><trkpt lat="45.5015156985396" lon="9.1263496828591"><ele>136.0</ele><time>2026-04-01T06:02:11Z</time></trkpt><trkpt lat="45.50147536881811" lon="9.126436555364874"><ele>136.0</ele><time>2026-04-01T06:02:12Z</time></trkpt><trkpt lat="45.501427183367255" lon="9.126497415647268"><ele>136.0</ele><time>2026-04-01T06:02:19Z</time></trkpt><trkpt lat="45.50134839813686" lon="9.12659086384406"><ele>136.0</ele><time>2026-04-01T06:02:31Z</time></trkpt><trkpt lat="45.50130193879956" lon="9.12668499361269"><ele>136.0</ele><time>2026-04-01T06:02:32Z</time></trkpt><trkpt lat="45.501249421659004" lon="9.126802701187101"><ele>135.75</ele><time>2026-04-01T06:02:33Z</time></trkpt><trkpt lat="45.50118684022178" lon="9.126949964354178"><ele>135.5</ele><time>2026-04-01T06:02:34Z</time></trkpt><trkpt lat="45.501114802738876" lon="9.12711421813053"><ele>135.25</ele><time>2026-04-01T06:02:35Z</time></trkpt><trkpt lat="45.501035732405185" lon="9.127283433165239"><ele>135.0</ele><time>2026-04-01T06:02:36Z</time></trkpt><trkpt lat="45.50095188903112" lon="9.127468215983756"><ele>134.66666666666666</ele><time>2026-04-01T06:02:37Z</time></trkpt><trkpt lat="45.50084912425865" lon="9.127662127079407"><ele>134.33333333333331</ele><time>2026-04-01T06:02:38Z</time></trkpt><trkpt lat="45.50076342510877" lon="9.127881072268277"><ele>134.0</ele><time>2026-04-01T06:02:39Z</time></trkpt><trkpt lat="45.50067217893284" lon="9.12811284036708"><ele>134.66666666666666</ele><time>2026-04-01T06:02:40Z</time></trkpt><trkpt lat="45.50057058922233" lon="9.128333192570215"><ele>135.33333333333334</ele><time>2026-04-01T06:02:40.999Z</time></trkpt><trkpt lat="45.50046752649455" lon="9.128533751577587"><ele>136.0</ele><time>2026-04-01T06:02:41.999Z</time></trkpt><trkpt lat="45.5003861092833" lon="9.12874535326732"><ele>136.0</ele><time>2026-04-01T06:02:42.999Z</time></trkpt><trkpt lat="45.50029600058708" lon="9.12894661681049"><ele>136.0</ele><time>2026-04-01T06:02:43.999Z</time></trkpt><trkpt lat="45.500215587046725" lon="9.129149539772756"><ele>136.0</ele><time>2026-04-01T06:02:44.999Z</time></trkpt><trkpt lat="45.50013866780376" lon="9.129352189842287"><ele>136.0</ele><time>2026-04-01T06:02:45.999Z</time></trkpt><trkpt lat="45.50006354958565" lon="9.129532158192442"><ele>136.0</ele><time>2026-04-01T06:02:46.999Z</time></trkpt><trkpt lat="45.49999669969914" lon="9.129695163739804"><ele>136.0</ele><time>2026-04-01T06:02:47.999Z</time></trkpt><trkpt lat="45.499934413753216" lon="9.129830257908452"><ele>136.0</ele><time>2026-04-01T06:02:48.999Z</time></trkpt><trkpt lat="45.499864306986176" lon="9.129925305278329"><ele>136.4</ele><time>2026-04-01T06:02:49.999Z</time></trkpt><trkpt lat="45.49983048739922" lon="9.130072042307154"><ele>136.8</ele><time>2026-04-01T06:02:51.999Z</time></trkpt><trkpt lat="45.49976172599921" lon="9.13015481263628"><ele>137.20000000000002</ele><time>2026-04-01T06:03:25.998Z</time></trkpt><trkpt lat="45.49970030832649" lon="9.130311352341954"><ele>137.6</ele><time>2026-04-01T06:03:27.998Z</time></trkpt><trkpt lat="45.49966477635774" lon="9.130400974240768"><ele>138.0</ele><time>2026-04-01T06:03:28.998Z</time></trkpt><trkpt lat="45.49962722186805" lon="9.130487556292454"><ele>138.0</ele><time>2026-04-01T06:03:29.998Z</time></trkpt><trkpt lat="45.49959081167026" lon="9.130577730526849"><ele>138.0</ele><time>2026-04-01T06:03:30.998Z</time></trkpt><trkpt lat="45.49956339038087" lon="9.130660415415223"><ele>138.0</ele><time>2026-04-01T06:03:31.998Z</time></trkpt><trkpt lat="45.4994976405797" lon="9.130748472550978"><ele>138.0</ele><time>2026-04-01T06:03:32.998Z</time></trkpt><trkpt lat="45.49944837319921" lon="9.130881077355673"><ele>138.0</ele><time>2026-04-01T06:03:33.998Z</time></trkpt><trkpt lat="45.49941124494531" lon="9.130973283923593"><ele>138.0</ele><time>2026-04-01T06:03:34.998Z</time></trkpt><trkpt lat="45.49938074001476" lon="9.131054100359776"><ele>138.20000000000002</ele><time>2026-04-01T06:03:35.998Z</time></trkpt><trkpt lat="45.49931814832217" lon="9.131199970648728"><ele>138.4</ele><time>2026-04-01T06:03:37.998Z</time></trkpt><trkpt lat="45.49928543180445" lon="9.131307646445437"><ele>138.60000000000002</ele><time>2026-04-01T06:03:38.998Z</time></trkpt><trkpt lat="45.49919283582467" lon="9.131376382700525"><ele>138.8</ele><time>2026-04-01T06:03:39.998Z</time></trkpt><trkpt lat="45.49914172890882" lon="9.131490385095603"><ele>139.0</ele><time>2026-04-01T06:03:40.998Z</time></trkpt><trkpt lat="45.49908230256696" lon="9.131622963208043"><ele>138.0</ele><time>2026-04-01T06:03:41.998Z</time></trkpt><trkpt lat="45.49901553296096" lon="9.131772027968875"><ele>137.0</ele><time>2026-04-01T06:03:42.998Z</time></trkpt><trkpt lat="45.49894332527371" lon="9.131933937635909"><ele>136.0</ele><time>2026-04-01T06:03:43.998Z</time></trkpt><trkpt lat="45.49886532513072" lon="9.132111214975144"><ele>135.0</ele><time>2026-04-01T06:03:44.998Z</time></trkpt><trkpt lat="45.49877788416115" lon="9.13230994932051"><ele>136.0</ele><time>2026-04-01T06:03:45.998Z</time></trkpt><trkpt lat="45.498681722751826" lon="9.13252850329061"><ele>137.0</ele><time>2026-04-01T06:03:46.998Z</time></trkpt><trkpt lat="45.498600886511014" lon="9.132711022549406"><ele>138.0</ele><time>2026-04-01T06:03:47.998Z</time></trkpt><trkpt lat="45.49852759200734" lon="9.132872015506656"><ele>138.0</ele><time>2026-04-01T06:03:48.998Z</time></trkpt><trkpt lat="45.49846027462316" lon="9.133019534288774"><ele>138.0</ele><time>2026-04-01T06:03:49.998Z</time></trkpt><trkpt lat="45.49840306605828" lon="9.133144923546928"><ele>138.0</ele><time>2026-04-01T06:03:50.998Z</time></trkpt><trkpt lat="45.49835803191815" lon="9.133243628958558"><ele>138.0</ele><time>2026-04-01T06:03:51.998Z</time></trkpt><trkpt lat="45.49829932529791" lon="9.13337230161001"><ele>138.0</ele><time>2026-04-01T06:03:52.998Z</time></trkpt><trkpt lat="45.49827502131604" lon="9.133579648028604"><ele>137.0</ele><time>2026-04-01T06:03:53.998Z</time></trkpt><trkpt lat="45.49818056854677" lon="9.133761176870678"><ele>136.0</ele><time>2026-04-01T06:03:54.998Z</time></trkpt><trkpt lat="45.49808803105475" lon="9.133969613082032"><ele>135.0</ele><time>2026-04-01T06:03:55.998Z</time></trkpt><trkpt lat="45.49800048794167" lon="9.134173145644434"><ele>135.0</ele><time>2026-04-01T06:03:56.998Z</time></trkpt><trkpt lat="45.497869067622226" lon="9.134321581212"><ele>135.0</ele><time>2026-04-01T06:03:57.998Z</time></trkpt><trkpt lat="45.49778000485115" lon="9.134518192155952"><ele>135.0</ele><time>2026-04-01T06:03:58.998Z</time></trkpt><trkpt lat="45.49769393297236" lon="9.134707314843908"><ele>135.0</ele><time>2026-04-01T06:03:59.998Z</time></trkpt><trkpt lat="45.49761622286799" lon="9.134877550400986"><ele>135.0</ele><time>2026-04-01T06:04:00.998Z</time></trkpt><trkpt lat="45.497543595564125" lon="9.135036651278554"><ele>135.0</ele><time>2026-04-01T06:04:01.998Z</time></trkpt><trkpt lat="45.49746949265806" lon="9.135198984704843"><ele>135.0</ele><time>2026-04-01T06:04:02.998Z</time></trkpt><trkpt lat="45.49739954239113" lon="9.135352847334484"><ele>135.0</ele><time>2026-04-01T06:04:03.998Z</time></trkpt><trkpt lat="45.49733258641844" lon="9.135500497544374"><ele>135.0</ele><time>2026-04-01T06:04:04.997Z</time></trkpt><trkpt lat="45.497268568901404" lon="9.135641667943768"><ele>135.0</ele><time>2026-04-01T06:04:05.997Z</time></trkpt><trkpt lat="45.49720291637183" lon="9.135786443830483"><ele>135.0</ele><time>2026-04-01T06:04:07Z</time></trkpt><trkpt lat="45.49717652404697" lon="9.135964203597931"><ele>134.75</ele><time>2026-04-01T06:04:08Z</time></trkpt><trkpt lat="45.49710569313642" lon="9.136109691547942"><ele>134.5</ele><time>2026-04-01T06:04:09Z</time></trkpt><trkpt lat="45.49703715789883" lon="9.136257509299215"><ele>134.25</ele><time>2026-04-01T06:04:10Z</time></trkpt><trkpt lat="45.49697515464655" lon="9.136389787347154"><ele>134.0</ele><time>2026-04-01T06:04:11Z</time></trkpt><trkpt lat="45.49692047447087" lon="9.136516586505445"><ele>133.8</ele><time>2026-04-01T06:04:12Z</time></trkpt><trkpt lat="45.496865965447164" lon="9.13663728801904"><ele>133.60000000000002</ele><time>2026-04-01T06:04:13Z</time></trkpt><trkpt lat="45.4968153808207" lon="9.13674557259056"><ele>133.4</ele><time>2026-04-01T06:04:14Z</time></trkpt><trkpt lat="45.4967712038161" lon="9.1368457605979"><ele>133.20000000000002</ele><time>2026-04-01T06:04:15Z</time></trkpt><trkpt lat="45.496722262591994" lon="9.136942420338803"><ele>133.0</ele><time>2026-04-01T06:04:16Z</time></trkpt><trkpt lat="45.496666633668575" lon="9.137047629456635"><ele>133.0</ele><time>2026-04-01T06:04:17Z</time></trkpt><trkpt lat="45.4966145381254" lon="9.137169626019636"><ele>133.0</ele><time>2026-04-01T06:04:18Z</time></trkpt><trkpt lat="45.49656017247707" lon="9.137287150035984"><ele>133.0</ele><time>2026-04-01T06:04:19Z</time></trkpt><trkpt lat="45.49648696812376" lon="9.137369589655025"><ele>133.0</ele><time>2026-04-01T06:04:20Z</time></trkpt><trkpt lat="45.496443816969226" lon="9.137464929737758"><ele>133.0</ele><time>2026-04-01T06:04:21Z</time></trkpt><trkpt lat="45.49639044518513" lon="9.137582851733924"><ele>133.0</ele><time>2026-04-01T06:04:22Z</time></trkpt><trkpt lat="45.49632711869488" lon="9.137722768096008"><ele>133.0</ele><time>2026-04-01T06:04:23Z</time></trkpt><trkpt lat="45.49625593506165" lon="9.137880045075793"><ele>133.0</ele><time>2026-04-01T06:04:24Z</time></trkpt><trkpt lat="45.49622578775699" lon="9.138057424556502"><ele>133.0</ele><time>2026-04-01T06:04:25Z</time></trkpt><trkpt lat="45.49617233307341" lon="9.138186696239183"><ele>133.4</ele><time>2026-04-01T06:04:26Z</time></trkpt><trkpt lat="45.49611671558628" lon="9.138311441594105"><ele>133.8</ele><time>2026-04-01T06:04:27Z</time></trkpt><trkpt lat="45.49605259489208" lon="9.138453380646418"><ele>134.2</ele><time>2026-04-01T06:04:28Z</time></trkpt><trkpt lat="45.49599131872095" lon="9.138576285434528"><ele>134.6</ele><time>2026-04-01T06:04:29Z</time></trkpt><trkpt lat="45.49594723020571" lon="9.138681114151423"><ele>135.0</ele><time>2026-04-01T06:04:30Z</time></trkpt><trkpt lat="45.49588133645927" lon="9.138809638276614"><ele>135.0</ele><time>2026-04-01T06:04:32Z</time></trkpt><trkpt lat="45.49580514129264" lon="9.139003418722826"><ele>135.0</ele><time>2026-04-01T06:04:34Z</time></trkpt><trkpt lat="45.49572933258393" lon="9.139165017441579"><ele>135.0</ele><time>2026-04-01T06:04:35Z</time></trkpt><trkpt lat="45.49564574987693" lon="9.139334476665914"><ele>135.0</ele><time>2026-04-01T06:04:36Z</time></trkpt><trkpt lat="45.49558123887598" lon="9.13948232850566"><ele>134.75</ele><time>2026-04-01T06:04:37Z</time></trkpt><trkpt lat="45.49551046708757" lon="9.139645590627216"><ele>134.5</ele><time>2026-04-01T06:04:38Z</time></trkpt><trkpt lat="45.495442267465435" lon="9.139802983082093"><ele>134.25</ele><time>2026-04-01T06:04:39Z</time></trkpt><trkpt lat="45.495369317033116" lon="9.13996187413478"><ele>134.0</ele><time>2026-04-01T06:04:40Z</time></trkpt><trkpt lat="45.49530862843372" lon="9.14010524427583"><ele>134.5</ele><time>2026-04-01T06:04:41Z</time></trkpt><trkpt lat="45.495251173974324" lon="9.140233440935225"><ele>135.0</ele><time>2026-04-01T06:04:42Z</time></trkpt><trkpt lat="45.49514967855065" lon="9.140322261476753"><ele>135.5</ele><time>2026-04-01T06:04:42.999Z</time></trkpt><trkpt lat="45.49508610916472" lon="9.140462125276235"><ele>136.0</ele><time>2026-04-01T06:04:43.999Z</time></trkpt><trkpt lat="45.49501559034859" lon="9.140619118865063"><ele>135.6</ele><time>2026-04-01T06:04:44.999Z</time></trkpt><trkpt lat="45.4949919038131" lon="9.140821453122053"><ele>135.2</ele><time>2026-04-01T06:04:45.999Z</time></trkpt><trkpt lat="45.49493287509508" lon="9.140952790990994"><ele>134.8</ele><time>2026-04-01T06:04:46.999Z</time></trkpt><trkpt lat="45.494883511523355" lon="9.141050010309126"><ele>134.4</ele><time>2026-04-01T06:04:47.999Z</time></trkpt><trkpt lat="45.49480194921337" lon="9.141095873078704"><ele>134.0</ele><time>2026-04-01T06:04:48.999Z</time></trkpt><trkpt lat="45.494728111534975" lon="9.141221070383626"><ele>134.0</ele><time>2026-04-01T06:04:50.999Z</time></trkpt><trkpt lat="45.49468883576616" lon="9.14130814500364"><ele>134.0</ele><time>2026-04-01T06:04:52.999Z</time></trkpt><trkpt lat="45.494653403795155" lon="9.14141984076891"><ele>134.0</ele><time>2026-04-01T06:04:57.999Z</time></trkpt><trkpt lat="45.49460557076645" lon="9.14153083310921"><ele>134.0</ele><time>2026-04-01T06:04:58.999Z</time></trkpt><trkpt lat="45.49454570989882" lon="9.14168632912845"><ele>134.0</ele><time>2026-04-01T06:04:59.999Z</time></trkpt><trkpt lat="45.49444020122276" lon="9.141888335315661"><ele>134.0</ele><time>2026-04-01T06:05:00.999Z</time></trkpt><trkpt lat="45.49433982217475" lon="9.142117204394639"><ele>134.0</ele><time>2026-04-01T06:05:01.999Z</time></trkpt><trkpt lat="45.49422285851909" lon="9.142362225939747"><ele>134.0</ele><time>2026-04-01T06:05:02.999Z</time></trkpt><trkpt lat="45.49412056385256" lon="9.142588064924796"><ele>134.0</ele><time>2026-04-01T06:05:03.999Z</time></trkpt><trkpt lat="45.49403235291381" lon="9.142795578546984"><ele>134.0</ele><time>2026-04-01T06:05:04.999Z</time></trkpt><trkpt lat="45.49395877128942" lon="9.14299864599287"><ele>134.0</ele><time>2026-04-01T06:05:05.999Z</time></trkpt><trkpt lat="45.49387756840091" lon="9.143167833496664"><ele>134.0</ele><time>2026-04-01T06:05:06.999Z</time></trkpt><trkpt lat="45.4938075619251" lon="9.143350538046677"><ele>134.0</ele><time>2026-04-01T06:05:07.999Z</time></trkpt><trkpt lat="45.49372550610092" lon="9.143529318220937"><ele>134.0</ele><time>2026-04-01T06:05:08.999Z</time></trkpt><trkpt lat="45.49365224979203" lon="9.143710761290645"><ele>134.0</ele><time>2026-04-01T06:05:09.999Z</time></trkpt><trkpt lat="45.49358015907902" lon="9.143885833869822"><ele>133.75</ele><time>2026-04-01T06:05:10.999Z</time></trkpt><trkpt lat="45.49351187131529" lon="9.144047033093644"><ele>133.5</ele><time>2026-04-01T06:05:11.999Z</time></trkpt><trkpt lat="45.49344564988737" lon="9.14419785931076"><ele>133.25</ele><time>2026-04-01T06:05:12.999Z</time></trkpt><trkpt lat="45.49337947238207" lon="9.144333006705484"><ele>133.0</ele><time>2026-04-01T06:05:13.999Z</time></trkpt><trkpt lat="45.49331536456082" lon="9.144454687858431"><ele>133.0</ele><time>2026-04-01T06:05:14.999Z</time></trkpt><trkpt lat="45.49326191390038" lon="9.144563127385629"><ele>133.0</ele><time>2026-04-01T06:05:15.999Z</time></trkpt><trkpt lat="45.493217005645086" lon="9.144645572164013"><ele>133.0</ele><time>2026-04-01T06:05:16.999Z</time></trkpt><trkpt lat="45.49317309100266" lon="9.144728746399046"><ele>133.0</ele><time>2026-04-01T06:05:18.999Z</time></trkpt><trkpt lat="45.49313300853329" lon="9.144805128072267"><ele>133.0</ele><time>2026-04-01T06:05:26.998Z</time></trkpt><trkpt lat="45.49306715901979" lon="9.14496310440029"><ele>133.0</ele><time>2026-04-01T06:05:28.998Z</time></trkpt><trkpt lat="45.49300841679698" lon="9.145085066281904"><ele>133.0</ele><time>2026-04-01T06:05:29.998Z</time></trkpt><trkpt lat="45.49293595091615" lon="9.145237711421299"><ele>133.0</ele><time>2026-04-01T06:05:30.998Z</time></trkpt><trkpt lat="45.4928504489264" lon="9.145421473997395"><ele>133.0</ele><time>2026-04-01T06:05:31.998Z</time></trkpt><trkpt lat="45.49274551203017" lon="9.14563638324935"><ele>132.5</ele><time>2026-04-01T06:05:32.998Z</time></trkpt><trkpt lat="45.49262708515037" lon="9.145888348037575"><ele>132.0</ele><time>2026-04-01T06:05:33.998Z</time></trkpt><trkpt lat="45.49248740567757" lon="9.146205947537958"><ele>132.0</ele><time>2026-04-01T06:05:34.998Z</time></trkpt><trkpt lat="45.492366159602454" lon="9.146485492832644"><ele>132.0</ele><time>2026-04-01T06:05:35.998Z</time></trkpt><trkpt lat="45.49225928717927" lon="9.146737959741705"><ele>132.0</ele><time>2026-04-01T06:05:36.998Z</time></trkpt><trkpt lat="45.492160593162055" lon="9.146969677531809"><ele>131.5</ele><time>2026-04-01T06:05:37.998Z</time></trkpt><trkpt lat="45.49207382485344" lon="9.147168954845673"><ele>131.0</ele><time>2026-04-01T06:05:38.998Z</time></trkpt><trkpt lat="45.492005042782246" lon="9.1473268509477"><ele>130.5</ele><time>2026-04-01T06:05:39.998Z</time></trkpt><trkpt lat="45.49194017282802" lon="9.147436000955613"><ele>130.0</ele><time>2026-04-01T06:05:40.998Z</time></trkpt><trkpt lat="45.491889819161166" lon="9.147520422518229"><ele>131.0</ele><time>2026-04-01T06:05:41.998Z</time></trkpt><trkpt lat="45.49181719857397" lon="9.147615418245302"><ele>132.0</ele><time>2026-04-01T06:05:43.998Z</time></trkpt><trkpt lat="45.49185007474042" lon="9.147727809909435"><ele>133.0</ele><time>2026-04-01T06:06:19Z</time></trkpt><trkpt lat="45.49180708999438" lon="9.14782932056231"><ele>134.0</ele><time>2026-04-01T06:06:20Z</time></trkpt><trkpt lat="45.491748408080454" lon="9.147950673336481"><ele>135.0</ele><time>2026-04-01T06:06:21Z</time></trkpt><trkpt lat="45.49168159504608" lon="9.148095426964266"><ele>135.75</ele><time>2026-04-01T06:06:22Z</time></trkpt><trkpt lat="45.49160716241809" lon="9.148253818095574"><ele>136.5</ele><time>2026-04-01T06:06:23Z</time></trkpt><trkpt lat="45.49152211324582" lon="9.14843114130322"><ele>137.25</ele><time>2026-04-01T06:06:24Z</time></trkpt><trkpt lat="45.491439486768336" lon="9.148622634085598"><ele>138.0</ele><time>2026-04-01T06:06:25Z</time></trkpt><trkpt lat="45.491355658681584" lon="9.14882782891191"><ele>138.0</ele><time>2026-04-01T06:06:26Z</time></trkpt><trkpt lat="45.49125862411988" lon="9.149026493830615"><ele>138.0</ele><time>2026-04-01T06:06:27Z</time></trkpt><trkpt lat="45.49112657172499" lon="9.149201099542145"><ele>138.0</ele><time>2026-04-01T06:06:28Z</time></trkpt><trkpt lat="45.49102888942001" lon="9.149417078446973"><ele>137.66666666666666</ele><time>2026-04-01T06:06:29Z</time></trkpt><trkpt lat="45.49092979591773" lon="9.149636304700463"><ele>137.33333333333331</ele><time>2026-04-01T06:06:30Z</time></trkpt><trkpt lat="45.49083552520515" lon="9.149843162996822"><ele>137.0</ele><time>2026-04-01T06:06:31Z</time></trkpt><trkpt lat="45.49075652213494" lon="9.150053151541085"><ele>136.5</ele><time>2026-04-01T06:06:32Z</time></trkpt><trkpt lat="45.490660436491375" lon="9.15022528907045"><ele>136.0</ele><time>2026-04-01T06:06:33Z</time></trkpt><trkpt lat="45.49058368939997" lon="9.150396605131768"><ele>135.5</ele><time>2026-04-01T06:06:34Z</time></trkpt><trkpt lat="45.4905088001284" lon="9.150561250146573"><ele>135.0</ele><time>2026-04-01T06:06:35Z</time></trkpt><trkpt lat="45.49045655515792" lon="9.150716580320386"><ele>134.5</ele><time>2026-04-01T06:06:36Z</time></trkpt><trkpt lat="45.490367054397865" lon="9.15083170997075"><ele>134.0</ele><time>2026-04-01T06:06:37Z</time></trkpt><trkpt lat="45.490302400000786" lon="9.150937165985743"><ele>133.5</ele><time>2026-04-01T06:06:38Z</time></trkpt><trkpt lat="45.49025036482253" lon="9.151030644772826"><ele>133.0</ele><time>2026-04-01T06:06:39Z</time></trkpt><trkpt lat="45.49019956268236" lon="9.15109379290599"><ele>132.5</ele><time>2026-04-01T06:06:40Z</time></trkpt><trkpt lat="45.4901533385792" lon="9.151167130353224"><ele>132.0</ele><time>2026-04-01T06:06:42Z</time></trkpt><trkpt lat="45.49020204359646" lon="9.15122632899291"><ele>132.0</ele><time>2026-04-01T06:06:49.999Z</time></trkpt><trkpt lat="45.49015844781764" lon="9.151333332288619"><ele>132.0</ele><time>2026-04-01T06:07:19.999Z</time></trkpt><trkpt lat="45.490101694365215" lon="9.151456884636715"><ele>132.0</ele><time>2026-04-01T06:07:20.999Z</time></trkpt><trkpt lat="45.49003757041979" lon="9.151600410815254"><ele>132.0</ele><time>2026-04-01T06:07:21.999Z</time></trkpt><trkpt lat="45.4899622532443" lon="9.151766335661025"><ele>132.0</ele><time>2026-04-01T06:07:22.999Z</time></trkpt><trkpt lat="45.48989249460721" lon="9.151953664714341"><ele>132.66666666666666</ele><time>2026-04-01T06:07:23.999Z</time></trkpt><trkpt lat="45.48980634400256" lon="9.152109104602857"><ele>133.33333333333331</ele><time>2026-04-01T06:07:24.999Z</time></trkpt><trkpt lat="45.48971794901033" lon="9.15230418671595"><ele>134.0</ele><time>2026-04-01T06:07:25.999Z</time></trkpt><trkpt lat="45.48962713960685" lon="9.15250456490352"><ele>133.33333333333331</ele><time>2026-04-01T06:07:26.999Z</time></trkpt><trkpt lat="45.48953354902155" lon="9.152710860725128"><ele>132.66666666666666</ele><time>2026-04-01T06:07:27.999Z</time></trkpt><trkpt lat="45.489441315712064" lon="9.15291416482293"><ele>132.0</ele><time>2026-04-01T06:07:28.999Z</time></trkpt><trkpt lat="45.489350988670694" lon="9.153113267024507"><ele>132.33333333333334</ele><time>2026-04-01T06:07:29.999Z</time></trkpt><trkpt lat="45.489261381166415" lon="9.153310784302464"><ele>132.66666666666669</ele><time>2026-04-01T06:07:30.998Z</time></trkpt><trkpt lat="45.48917375958464" lon="9.153503923164875"><ele>133.0</ele><time>2026-04-01T06:07:31.998Z</time></trkpt><trkpt lat="45.48908647396768" lon="9.153695848154847"><ele>133.0</ele><time>2026-04-01T06:07:32.998Z</time></trkpt><trkpt lat="45.48899592838322" lon="9.153894835523458"><ele>133.0</ele><time>2026-04-01T06:07:33.998Z</time></trkpt><trkpt lat="45.4889044204929" lon="9.154095937769926"><ele>133.0</ele><time>2026-04-01T06:07:34.998Z</time></trkpt><trkpt lat="45.4888179918278" lon="9.15428587783745"><ele>133.0</ele><time>2026-04-01T06:07:35.998Z</time></trkpt><trkpt lat="45.48873927271986" lon="9.154458874933255"><ele>133.0</ele><time>2026-04-01T06:07:36.998Z</time></trkpt><trkpt lat="45.4886648181223" lon="9.154622500412266"><ele>133.0</ele><time>2026-04-01T06:07:37.998Z</time></trkpt><trkpt lat="45.48859888721295" lon="9.154767116801136"><ele>133.0</ele><time>2026-04-01T06:07:38.998Z</time></trkpt><trkpt lat="45.48854561690245" lon="9.154883988032903"><ele>133.0</ele><time>2026-04-01T06:07:39.998Z</time></trkpt><trkpt lat="45.488493903546015" lon="9.154997443440418"><ele>133.0</ele><time>2026-04-01T06:07:40.998Z</time></trkpt><trkpt lat="45.48845004514192" lon="9.155110556622661"><ele>133.0</ele><time>2026-04-01T06:07:41.998Z</time></trkpt><trkpt lat="45.488388753020956" lon="9.15518949647644"><ele>133.0</ele><time>2026-04-01T06:07:42.998Z</time></trkpt><trkpt lat="45.48832008237104" lon="9.1553464269908"><ele>133.0</ele><time>2026-04-01T06:07:44.998Z</time></trkpt><trkpt lat="45.48828536595924" lon="9.155426400964714"><ele>133.0</ele><time>2026-04-01T06:07:45.998Z</time></trkpt><trkpt lat="45.48822450434459" lon="9.155555604164386"><ele>133.0</ele><time>2026-04-01T06:07:47.998Z</time></trkpt><trkpt lat="45.4881838220835" lon="9.155648326776722"><ele>133.0</ele><time>2026-04-01T06:07:49.998Z</time></trkpt><trkpt lat="45.488141436323325" lon="9.155725344594996"><ele>133.0</ele><time>2026-04-01T06:07:52.998Z</time></trkpt><trkpt lat="45.48807965909666" lon="9.155881771287087"><ele>133.0</ele><time>2026-04-01T06:08:10.998Z</time></trkpt><trkpt lat="45.48802770457051" lon="9.155988367340646"><ele>132.8</ele><time>2026-04-01T06:08:11.998Z</time></trkpt><trkpt lat="45.487975414292784" lon="9.156110843702239"><ele>132.60000000000002</ele><time>2026-04-01T06:08:12.998Z</time></trkpt><trkpt lat="45.4879121230607" lon="9.156232574647442"><ele>132.39999999999998</ele><time>2026-04-01T06:08:13.997Z</time></trkpt><trkpt lat="45.487849177159696" lon="9.156348860382918"><ele>132.2</ele><time>2026-04-01T06:08:14.997Z</time></trkpt><trkpt lat="45.48778054512511" lon="9.156463728772328"><ele>132.0</ele><time>2026-04-01T06:08:15.997Z</time></trkpt><trkpt lat="45.48771261653762" lon="9.156567033038563"><ele>131.5</ele><time>2026-04-01T06:08:16.997Z</time></trkpt><trkpt lat="45.48763742053819" lon="9.156676675935692"><ele>131.0</ele><time>2026-04-01T06:08:17.997Z</time></trkpt><trkpt lat="45.487556973395726" lon="9.15678376146307"><ele>130.5</ele><time>2026-04-01T06:08:19Z</time></trkpt><trkpt lat="45.48746862603901" lon="9.156898145615136"><ele>130.0</ele><time>2026-04-01T06:08:20Z</time></trkpt><trkpt lat="45.48737945331054" lon="9.157018270948349"><ele>130.0</ele><time>2026-04-01T06:08:21Z</time></trkpt><trkpt lat="45.48728762593659" lon="9.157142575655827"><ele>130.0</ele><time>2026-04-01T06:08:22Z</time></trkpt><trkpt lat="45.48719262309188" lon="9.157271818618057"><ele>130.0</ele><time>2026-04-01T06:08:23Z</time></trkpt><trkpt lat="45.48709471072353" lon="9.157401203219715"><ele>130.0</ele><time>2026-04-01T06:08:24Z</time></trkpt><trkpt lat="45.48700462110639" lon="9.15752107500976"><ele>131.0</ele><time>2026-04-01T06:08:25Z</time></trkpt><trkpt lat="45.486915684651166" lon="9.157649388436209"><ele>132.0</ele><time>2026-04-01T06:08:26Z</time></trkpt><trkpt lat="45.48682579319233" lon="9.157761256442493"><ele>133.0</ele><time>2026-04-01T06:08:27Z</time></trkpt><trkpt lat="45.48673215064359" lon="9.157880601512312"><ele>134.0</ele><time>2026-04-01T06:08:28Z</time></trkpt><trkpt lat="45.486644640453655" lon="9.157984833280054"><ele>134.0</ele><time>2026-04-01T06:08:29Z</time></trkpt><trkpt lat="45.486571292515755" lon="9.158091092858172"><ele>134.0</ele><time>2026-04-01T06:08:30Z</time></trkpt><trkpt lat="45.486506551037486" lon="9.158190893954442"><ele>134.0</ele><time>2026-04-01T06:08:31Z</time></trkpt><trkpt lat="45.486443981581175" lon="9.158266543846263"><ele>134.0</ele><time>2026-04-01T06:08:32Z</time></trkpt><trkpt lat="45.486387763454324" lon="9.158331900252898"><ele>134.0</ele><time>2026-04-01T06:08:33Z</time></trkpt><trkpt lat="45.48630612605602" lon="9.15843602800305"><ele>134.2</ele><time>2026-04-01T06:08:35Z</time></trkpt><trkpt lat="45.48624916529264" lon="9.158553095404177"><ele>134.4</ele><time>2026-04-01T06:09:00.999Z</time></trkpt><trkpt lat="45.48617670590943" lon="9.15862966382392"><ele>134.6</ele><time>2026-04-01T06:09:02.999Z</time></trkpt><trkpt lat="45.486082863151985" lon="9.158737785718255"><ele>134.8</ele><time>2026-04-01T06:09:04.999Z</time></trkpt><trkpt lat="45.48600987922515" lon="9.158820641403441"><ele>135.0</ele><time>2026-04-01T06:09:05.999Z</time></trkpt><trkpt lat="45.48593351486142" lon="9.158910191310628"><ele>135.0</ele><time>2026-04-01T06:09:06.999Z</time></trkpt><trkpt lat="45.48584696817376" lon="9.159029661061945"><ele>135.0</ele><time>2026-04-01T06:09:07.999Z</time></trkpt><trkpt lat="45.48575678812996" lon="9.15915472972886"><ele>135.0</ele><time>2026-04-01T06:09:08.999Z</time></trkpt><trkpt lat="45.48563990082459" lon="9.159296534581427"><ele>135.0</ele><time>2026-04-01T06:09:09.999Z</time></trkpt><trkpt lat="45.48549938593779" lon="9.159465282637422"><ele>136.0</ele><time>2026-04-01T06:09:10.999Z</time></trkpt><trkpt lat="45.48532380757542" lon="9.159687060619804"><ele>137.0</ele><time>2026-04-01T06:09:11.999Z</time></trkpt><trkpt lat="45.485163683936676" lon="9.159901352459014"><ele>135.0</ele><time>2026-04-01T06:09:12.999Z</time></trkpt><trkpt lat="45.48498105791446" lon="9.160145111652"><ele>133.0</ele><time>2026-04-01T06:09:13.999Z</time></trkpt><trkpt lat="45.484826726476754" lon="9.160365308905426"><ele>133.0</ele><time>2026-04-01T06:09:14.999Z</time></trkpt><trkpt lat="45.484691497482935" lon="9.16055701157027"><ele>133.0</ele><time>2026-04-01T06:09:15.999Z</time></trkpt><trkpt lat="45.48456624324943" lon="9.16070770989985"><ele>133.0</ele><time>2026-04-01T06:09:16.999Z</time></trkpt><trkpt lat="45.48444895557762" lon="9.160849739403435"><ele>132.75</ele><time>2026-04-01T06:09:17.999Z</time></trkpt><trkpt lat="45.48434758946027" lon="9.160980193039716"><ele>132.5</ele><time>2026-04-01T06:09:18.999Z</time></trkpt><trkpt lat="45.48424758446183" lon="9.161109151315042"><ele>132.25</ele><time>2026-04-01T06:09:19.999Z</time></trkpt><trkpt lat="45.48412936530579" lon="9.16127308073605"><ele>132.0</ele><time>2026-04-01T06:09:20.999Z</time></trkpt><trkpt lat="45.48398784863345" lon="9.161476166187063"><ele>131.66666666666666</ele><time>2026-04-01T06:09:21.999Z</time></trkpt><trkpt lat="45.48384747510884" lon="9.161652992160969"><ele>131.33333333333331</ele><time>2026-04-01T06:09:22.999Z</time></trkpt><trkpt lat="45.4837251455315" lon="9.161837071289476"><ele>131.0</ele><time>2026-04-01T06:09:23.999Z</time></trkpt><trkpt lat="45.483597563767496" lon="9.16198781528127"><ele>131.0</ele><time>2026-04-01T06:09:24.999Z</time></trkpt><trkpt lat="45.48348139083818" lon="9.162145679014799"><ele>131.0</ele><time>2026-04-01T06:09:25.999Z</time></trkpt><trkpt lat="45.48337583805488" lon="9.16230693087823"><ele>131.0</ele><time>2026-04-01T06:09:26.999Z</time></trkpt><trkpt lat="45.483247510313376" lon="9.162479633376707"><ele>131.66666666666666</ele><time>2026-04-01T06:09:27.999Z</time></trkpt><trkpt lat="45.48308353865611" lon="9.162661622731255"><ele>132.33333333333334</ele><time>2026-04-01T06:09:28.999Z</time></trkpt><trkpt lat="45.48295301010482" lon="9.162832333778065"><ele>133.0</ele><time>2026-04-01T06:09:29.999Z</time></trkpt><trkpt lat="45.482836400266244" lon="9.162984841284377"><ele>132.5</ele><time>2026-04-01T06:09:30.999Z</time></trkpt><trkpt lat="45.48275250226284" lon="9.163124705729446"><ele>132.0</ele><time>2026-04-01T06:09:31.999Z</time></trkpt><trkpt lat="45.48264807658673" lon="9.163233752098876"><ele>131.5</ele><time>2026-04-01T06:09:32.999Z</time></trkpt><trkpt lat="45.4825628222481" lon="9.163341183679739"><ele>131.0</ele><time>2026-04-01T06:09:33.999Z</time></trkpt><trkpt lat="45.48246851690309" lon="9.163477266539244"><ele>131.0</ele><time>2026-04-01T06:09:34.998Z</time></trkpt><trkpt lat="45.48237500441279" lon="9.163612521730021"><ele>131.0</ele><time>2026-04-01T06:09:35.998Z</time></trkpt><trkpt lat="45.48227480427948" lon="9.163746471187032"><ele>131.0</ele><time>2026-04-01T06:09:36.998Z</time></trkpt><trkpt lat="45.482165219038784" lon="9.163866762864927"><ele>131.0</ele><time>2026-04-01T06:09:37.998Z</time></trkpt><trkpt lat="45.482063966334536" lon="9.164001089765069"><ele>130.33333333333331</ele><time>2026-04-01T06:09:38.998Z</time></trkpt><trkpt lat="45.4819520221627" lon="9.164149600560386"><ele>129.66666666666666</ele><time>2026-04-01T06:09:39.998Z</time></trkpt><trkpt lat="45.481834512108826" lon="9.164305495274421"><ele>129.0</ele><time>2026-04-01T06:09:40.998Z</time></trkpt><trkpt lat="45.48171890179729" lon="9.164458179477231"><ele>129.0</ele><time>2026-04-01T06:09:41.998Z</time></trkpt><trkpt lat="45.48159896482089" lon="9.164616487535705"><ele>129.0</ele><time>2026-04-01T06:09:42.998Z</time></trkpt><trkpt lat="45.481482092721414" lon="9.164770810432993"><ele>129.0</ele><time>2026-04-01T06:09:43.998Z</time></trkpt><trkpt lat="45.48137686862991" lon="9.164910261584488"><ele>129.4</ele><time>2026-04-01T06:09:44.998Z</time></trkpt><trkpt lat="45.481287959016555" lon="9.165028091395833"><ele>129.8</ele><time>2026-04-01T06:09:45.998Z</time></trkpt><trkpt lat="45.481206513656836" lon="9.165136029071332"><ele>130.2</ele><time>2026-04-01T06:09:46.998Z</time></trkpt><trkpt lat="45.481136634820444" lon="9.165228637924532"><ele>130.6</ele><time>2026-04-01T06:09:47.998Z</time></trkpt><trkpt lat="45.4810688848721" lon="9.165318425387015"><ele>131.0</ele><time>2026-04-01T06:09:48.998Z</time></trkpt><trkpt lat="45.481004513660814" lon="9.16540373506242"><ele>131.0</ele><time>2026-04-01T06:09:49.998Z</time></trkpt><trkpt lat="45.48092987267393" lon="9.165502655078008"><ele>131.0</ele><time>2026-04-01T06:09:51.998Z</time></trkpt><trkpt lat="45.48089462344162" lon="9.165577189130554"><ele>131.0</ele><time>2026-04-01T06:09:56.998Z</time></trkpt><trkpt lat="45.48084155925797" lon="9.16565052848368"><ele>131.0</ele><time>2026-04-01T06:09:59.998Z</time></trkpt><trkpt lat="45.48077121008041" lon="9.165711197888351"><ele>131.0</ele><time>2026-04-01T06:10:01.998Z</time></trkpt><trkpt lat="45.480707135155406" lon="9.165796776930351"><ele>131.0</ele><time>2026-04-01T06:10:03.998Z</time></trkpt><trkpt lat="45.480765326898876" lon="9.166233708292326"><ele>131.0</ele><time>2026-04-01T06:10:04.998Z</time></trkpt><trkpt lat="45.48081625183324" lon="9.166301291527764"><ele>131.0</ele><time>2026-04-01T06:10:06.998Z</time></trkpt><trkpt lat="45.480822402075944" lon="9.166457379361285"><ele>131.0</ele><time>2026-04-01T06:10:08.998Z</time></trkpt><trkpt lat="45.4808135756145" lon="9.166572217242459"><ele>131.0</ele><time>2026-04-01T06:10:09.998Z</time></trkpt><trkpt lat="45.4808188333936" lon="9.16668011419169"><ele>131.0</ele><time>2026-04-01T06:10:10.998Z</time></trkpt><trkpt lat="45.48088098002668" lon="9.165579912338838"><ele>130.5</ele><time>2026-04-01T06:10:11.998Z</time></trkpt><trkpt lat="45.48079295597584" lon="9.16578106007229"><ele>130.0</ele><time>2026-04-01T06:10:26Z</time></trkpt><trkpt lat="45.4807156894898" lon="9.165886273329336"><ele>129.5</ele><time>2026-04-01T06:10:27Z</time></trkpt><trkpt lat="45.480622558184145" lon="9.165991470030823"><ele>129.0</ele><time>2026-04-01T06:10:28Z</time></trkpt><trkpt lat="45.480519818640715" lon="9.166114177917972"><ele>128.66666666666666</ele><time>2026-04-01T06:10:29Z</time></trkpt><trkpt lat="45.480412884326796" lon="9.166259676475791"><ele>128.33333333333331</ele><time>2026-04-01T06:10:30Z</time></trkpt><trkpt lat="45.48026419400942" lon="9.166378423270567"><ele>128.0</ele><time>2026-04-01T06:10:31Z</time></trkpt><trkpt lat="45.480134355463505" lon="9.166548357601725"><ele>128.66666666666666</ele><time>2026-04-01T06:10:32Z</time></trkpt><trkpt lat="45.480004952778934" lon="9.166716511572018"><ele>129.33333333333334</ele><time>2026-04-01T06:10:33Z</time></trkpt><trkpt lat="45.47987258243967" lon="9.166888521952345"><ele>130.0</ele><time>2026-04-01T06:10:34Z</time></trkpt><trkpt lat="45.47974001278564" lon="9.16706079131825"><ele>130.0</ele><time>2026-04-01T06:10:35Z</time></trkpt><trkpt lat="45.47960726294425" lon="9.167235570220411"><ele>130.0</ele><time>2026-04-01T06:10:36Z</time></trkpt><trkpt lat="45.47947860014051" lon="9.167406019030604"><ele>130.0</ele><time>2026-04-01T06:10:37Z</time></trkpt><trkpt lat="45.47936086015115" lon="9.167561996779883"><ele>129.8</ele><time>2026-04-01T06:10:38Z</time></trkpt><trkpt lat="45.47927127653025" lon="9.167680867874914"><ele>129.6</ele><time>2026-04-01T06:10:39Z</time></trkpt><trkpt lat="45.47919235315623" lon="9.167785536995362"><ele>129.4</ele><time>2026-04-01T06:10:40Z</time></trkpt><trkpt lat="45.479117132647325" lon="9.167885295219126"><ele>129.2</ele><time>2026-04-01T06:10:41Z</time></trkpt><trkpt lat="45.47904663720232" lon="9.167978787076436"><ele>129.0</ele><time>2026-04-01T06:10:42Z</time></trkpt><trkpt lat="45.47896777370742" lon="9.168086152217732"><ele>129.0</ele><time>2026-04-01T06:10:43Z</time></trkpt><trkpt lat="45.47888957359095" lon="9.168181061032165"><ele>129.0</ele><time>2026-04-01T06:10:44Z</time></trkpt><trkpt lat="45.47882217398736" lon="9.168259341887817"><ele>129.0</ele><time>2026-04-01T06:10:45Z</time></trkpt><trkpt lat="45.47872904124856" lon="9.168371126871348"><ele>129.0</ele><time>2026-04-01T06:10:47Z</time></trkpt><trkpt lat="45.478670356343535" lon="9.168440055168116"><ele>129.0</ele><time>2026-04-01T06:10:48Z</time></trkpt><trkpt lat="45.47860821433038" lon="9.168526633753723"><ele>130.0</ele><time>2026-04-01T06:10:49Z</time></trkpt><trkpt lat="45.47853213413822" lon="9.168609376200918"><ele>131.0</ele><time>2026-04-01T06:10:50Z</time></trkpt><trkpt lat="45.47845109574923" lon="9.168700978648616"><ele>132.0</ele><time>2026-04-01T06:10:51Z</time></trkpt><trkpt lat="45.478386208613394" lon="9.168817256648309"><ele>133.0</ele><time>2026-04-01T06:10:52Z</time></trkpt><trkpt lat="45.478320299720906" lon="9.1689047026995"><ele>134.0</ele><time>2026-04-01T06:10:53Z</time></trkpt><trkpt lat="45.47826442612005" lon="9.168978834208861"><ele>133.83333333333331</ele><time>2026-04-01T06:10:54Z</time></trkpt><trkpt lat="45.478195968002495" lon="9.169052612029542"><ele>133.66666666666666</ele><time>2026-04-01T06:10:56Z</time></trkpt><trkpt lat="45.47814391349354" lon="9.169146044209953"><ele>133.5</ele><time>2026-04-01T06:10:59Z</time></trkpt><trkpt lat="45.47808704910674" lon="9.169217209793345"><ele>133.33333333333334</ele><time>2026-04-01T06:11:01.999Z</time></trkpt><trkpt lat="45.47800695717166" lon="9.16931180692287"><ele>133.16666666666669</ele><time>2026-04-01T06:11:08.999Z</time></trkpt><trkpt lat="45.47793923810861" lon="9.16939534981616"><ele>133.0</ele><time>2026-04-01T06:11:10.999Z</time></trkpt><trkpt lat="45.47786378865369" lon="9.169290778376388"><ele>132.8</ele><time>2026-04-01T06:11:11.999Z</time></trkpt><trkpt lat="45.47781281107436" lon="9.169232651438072"><ele>132.60000000000002</ele><time>2026-04-01T06:11:12.999Z</time></trkpt><trkpt lat="45.47774784285492" lon="9.169154223990752"><ele>132.39999999999998</ele><time>2026-04-01T06:11:13.999Z</time></trkpt><trkpt lat="45.47765909496677" lon="9.169082324955411"><ele>132.2</ele><time>2026-04-01T06:11:14.999Z</time></trkpt><trkpt lat="45.47756652967774" lon="9.168974393583449"><ele>132.0</ele><time>2026-04-01T06:11:15.999Z</time></trkpt><trkpt lat="45.477466580785546" lon="9.168857060441098"><ele>132.0</ele><time>2026-04-01T06:11:16.999Z</time></trkpt><trkpt lat="45.47732456982114" lon="9.168705669074043"><ele>132.0</ele><time>2026-04-01T06:11:17.999Z</time></trkpt><trkpt lat="45.477149447585084" lon="9.168596528016034"><ele>132.0</ele><time>2026-04-01T06:11:18.999Z</time></trkpt><trkpt lat="45.47700370668238" lon="9.168533103299506"><ele>132.0</ele><time>2026-04-01T06:11:19.999Z</time></trkpt><trkpt lat="45.47686458539917" lon="9.16846307009174"><ele>132.0</ele><time>2026-04-01T06:11:20.999Z</time></trkpt><trkpt lat="45.47673442632698" lon="9.168414022669737"><ele>132.0</ele><time>2026-04-01T06:11:21.999Z</time></trkpt><trkpt lat="45.47659747414392" lon="9.168387014098641"><ele>132.0</ele><time>2026-04-01T06:11:22.999Z</time></trkpt><trkpt lat="45.47647225377199" lon="9.168364655499657"><ele>132.0</ele><time>2026-04-01T06:11:23.999Z</time></trkpt><trkpt lat="45.47636206133686" lon="9.168333216484088"><ele>132.0</ele><time>2026-04-01T06:11:24.999Z</time></trkpt><trkpt lat="45.476251334428916" lon="9.168315637366916"><ele>132.0</ele><time>2026-04-01T06:11:25.999Z</time></trkpt><trkpt lat="45.47616176773578" lon="9.168310590024104"><ele>132.0</ele><time>2026-04-01T06:11:26.999Z</time></trkpt><trkpt lat="45.476075644791024" lon="9.168304933507786"><ele>132.0</ele><time>2026-04-01T06:11:28.999Z</time></trkpt><trkpt lat="45.476012432702824" lon="9.168301369508933"><ele>131.75</ele><time>2026-04-01T06:11:30.999Z</time></trkpt><trkpt lat="45.47588038219931" lon="9.16835019908928"><ele>131.5</ele><time>2026-04-01T06:11:44.998Z</time></trkpt><trkpt lat="45.47578206947254" lon="9.16837185783722"><ele>131.25</ele><time>2026-04-01T06:11:45.998Z</time></trkpt><trkpt lat="45.475693841522094" lon="9.168382008082796"><ele>131.0</ele><time>2026-04-01T06:11:46.998Z</time></trkpt><trkpt lat="45.475547726315206" lon="9.168429129531289"><ele>130.0</ele><time>2026-04-01T06:11:47.998Z</time></trkpt><trkpt lat="45.47538133492035" lon="9.168498371349585"><ele>129.0</ele><time>2026-04-01T06:11:48.998Z</time></trkpt><trkpt lat="45.47519665985392" lon="9.168590153629054"><ele>128.0</ele><time>2026-04-01T06:11:49.998Z</time></trkpt><trkpt lat="45.47502723413425" lon="9.16869160560029"><ele>128.0</ele><time>2026-04-01T06:11:50.998Z</time></trkpt><trkpt lat="45.47486891304124" lon="9.168820324610065"><ele>128.0</ele><time>2026-04-01T06:11:51.998Z</time></trkpt><trkpt lat="45.47470916538643" lon="9.168961363996226"><ele>128.0</ele><time>2026-04-01T06:11:52.998Z</time></trkpt><trkpt lat="45.47456772116919" lon="9.169138633514379"><ele>128.20000000000002</ele><time>2026-04-01T06:11:53.998Z</time></trkpt><trkpt lat="45.474451157948245" lon="9.169289568139279"><ele>128.4</ele><time>2026-04-01T06:11:54.998Z</time></trkpt><trkpt lat="45.47435287598851" lon="9.169383114378181"><ele>128.60000000000002</ele><time>2026-04-01T06:11:55.998Z</time></trkpt><trkpt lat="45.47428419881301" lon="9.16946263756468"><ele>128.8</ele><time>2026-04-01T06:11:56.998Z</time></trkpt><trkpt lat="45.474225897262635" lon="9.169515536384766"><ele>129.0</ele><time>2026-04-01T06:11:57.998Z</time></trkpt><trkpt lat="45.47417332694029" lon="9.169578341880275"><ele>129.0</ele><time>2026-04-01T06:11:59.998Z</time></trkpt><trkpt lat="45.474114286157246" lon="9.169654441490072"><ele>129.0</ele><time>2026-04-01T06:12:17.998Z</time></trkpt><trkpt lat="45.47406037839028" lon="9.169716238563867"><ele>129.0</ele><time>2026-04-01T06:12:18.998Z</time></trkpt><trkpt lat="45.47398578181492" lon="9.1698107226692"><ele>129.0</ele><time>2026-04-01T06:12:19.998Z</time></trkpt><trkpt lat="45.473908331289635" lon="9.169931357961351"><ele>129.0</ele><time>2026-04-01T06:12:20.998Z</time></trkpt><trkpt lat="45.47380304846006" lon="9.170062297375148"><ele>127.66666666666666</ele><time>2026-04-01T06:12:21.998Z</time></trkpt><trkpt lat="45.473683474386156" lon="9.170214649549193"><ele>126.33333333333333</ele><time>2026-04-01T06:12:22.998Z</time></trkpt><trkpt lat="45.47356010850614" lon="9.170366781299373"><ele>125.0</ele><time>2026-04-01T06:12:23.998Z</time></trkpt><trkpt lat="45.47344826560385" lon="9.170525926526462"><ele>125.0</ele><time>2026-04-01T06:12:24.998Z</time></trkpt><trkpt lat="45.47333252219242" lon="9.170688599555087"><ele>125.0</ele><time>2026-04-01T06:12:25.998Z</time></trkpt><trkpt lat="45.47321659923668" lon="9.170866110442137"><ele>125.0</ele><time>2026-04-01T06:12:26.997Z</time></trkpt><trkpt lat="45.47310664728348" lon="9.171049645553541"><ele>125.33333333333333</ele><time>2026-04-01T06:12:27.997Z</time></trkpt><trkpt lat="45.47301083256225" lon="9.171237516384545"><ele>125.66666666666666</ele><time>2026-04-01T06:12:28.997Z</time></trkpt><trkpt lat="45.47292759136914" lon="9.171414805069482"><ele>126.0</ele><time>2026-04-01T06:12:29.997Z</time></trkpt><trkpt lat="45.4728534498895" lon="9.171584160906875"><ele>126.19999999999999</ele><time>2026-04-01T06:12:31Z</time></trkpt><trkpt lat="45.47278792601413" lon="9.171733653749756"><ele>126.39999999999999</ele><time>2026-04-01T06:12:32Z</time></trkpt><trkpt lat="45.47273406560056" lon="9.171851133940324"><ele>126.6</ele><time>2026-04-01T06:12:33Z</time></trkpt><trkpt lat="45.47268674269125" lon="9.171947780234351"><ele>126.8</ele><time>2026-04-01T06:12:34Z</time></trkpt><trkpt lat="45.47263490955009" lon="9.172032202853712"><ele>127.0</ele><time>2026-04-01T06:12:35Z</time></trkpt><trkpt lat="45.472578654195516" lon="9.172098852470677"><ele>127.00000000000001</ele><time>2026-04-01T06:12:36Z</time></trkpt><trkpt lat="45.47251202545932" lon="9.172130528065612"><ele>127.0</ele><time>2026-04-01T06:12:37Z</time></trkpt><trkpt lat="45.47241390901768" lon="9.172200467863894"><ele>127.0</ele><time>2026-04-01T06:12:39Z</time></trkpt><trkpt lat="45.472338009654294" lon="9.172207838515364"><ele>127.0</ele><time>2026-04-01T06:12:40Z</time></trkpt><trkpt lat="45.47225557092001" lon="9.172242803038834"><ele>127.00000000000001</ele><time>2026-04-01T06:12:41Z</time></trkpt><trkpt lat="45.47217722733869" lon="9.1722916225297"><ele>127.0</ele><time>2026-04-01T06:12:42Z</time></trkpt><trkpt lat="45.47208368641337" lon="9.172373951901339"><ele>126.83333333333334</ele><time>2026-04-01T06:12:44Z</time></trkpt><trkpt lat="45.47202594501559" lon="9.172431708830755"><ele>126.66666666666667</ele><time>2026-04-01T06:12:46Z</time></trkpt><trkpt lat="45.4719732814229" lon="9.172503191194483"><ele>126.5</ele><time>2026-04-01T06:12:49Z</time></trkpt><trkpt lat="45.47190703643613" lon="9.17255997238019"><ele>126.33333333333334</ele><time>2026-04-01T06:13:01Z</time></trkpt><trkpt lat="45.47184756134269" lon="9.17263599070684"><ele>126.16666666666667</ele><time>2026-04-01T06:13:02Z</time></trkpt><trkpt lat="45.471774117414945" lon="9.172742321481001"><ele>126.0</ele><time>2026-04-01T06:13:03Z</time></trkpt><trkpt lat="45.47168913705905" lon="9.172874513918016"><ele>126.0</ele><time>2026-04-01T06:13:04Z</time></trkpt><trkpt lat="45.47160402212931" lon="9.172998254991981"><ele>126.0</ele><time>2026-04-01T06:13:05Z</time></trkpt><trkpt lat="45.471512048452816" lon="9.17313625330325"><ele>126.0</ele><time>2026-04-01T06:13:06Z</time></trkpt><trkpt lat="45.47141015388199" lon="9.173242073023516"><ele>126.0</ele><time>2026-04-01T06:13:06.999Z</time></trkpt><trkpt lat="45.47133429078075" lon="9.173368493927882"><ele>125.19999999999999</ele><time>2026-04-01T06:13:07.999Z</time></trkpt><trkpt lat="45.47124155979902" lon="9.173459941926588"><ele>124.39999999999999</ele><time>2026-04-01T06:13:08.999Z</time></trkpt><trkpt lat="45.471171471723466" lon="9.173570986842025"><ele>123.6</ele><time>2026-04-01T06:13:09.999Z</time></trkpt><trkpt lat="45.471117892514854" lon="9.17370536698168"><ele>122.8</ele><time>2026-04-01T06:13:10.999Z</time></trkpt><trkpt lat="45.47108699035584" lon="9.173860565743043"><ele>122.0</ele><time>2026-04-01T06:13:11.999Z</time></trkpt><trkpt lat="45.47104766223654" lon="9.173998507219878"><ele>122.8</ele><time>2026-04-01T06:13:12.999Z</time></trkpt><trkpt lat="45.47100249431738" lon="9.174106733625816"><ele>123.6</ele><time>2026-04-01T06:13:13.999Z</time></trkpt><trkpt lat="45.47094206525271" lon="9.174192004182308"><ele>124.39999999999999</ele><time>2026-04-01T06:13:14.999Z</time></trkpt><trkpt lat="45.470841429273065" lon="9.174261457378563"><ele>125.19999999999999</ele><time>2026-04-01T06:13:15.999Z</time></trkpt><trkpt lat="45.47071528010411" lon="9.174350914269253"><ele>126.0</ele><time>2026-04-01T06:13:16.999Z</time></trkpt><trkpt lat="45.470596300081844" lon="9.174442575600413"><ele>126.0</ele><time>2026-04-01T06:13:17.999Z</time></trkpt><trkpt lat="45.470493547735224" lon="9.174547318613644"><ele>126.0</ele><time>2026-04-01T06:13:18.999Z</time></trkpt><trkpt lat="45.470394940610156" lon="9.174642707950108"><ele>126.0</ele><time>2026-04-01T06:13:19.999Z</time></trkpt><trkpt lat="45.47030496728095" lon="9.174740421289783"><ele>126.0</ele><time>2026-04-01T06:13:20.999Z</time></trkpt><trkpt lat="45.47022568730896" lon="9.174837509678628"><ele>125.6</ele><time>2026-04-01T06:13:21.999Z</time></trkpt><trkpt lat="45.47014721073185" lon="9.174915076894749"><ele>125.19999999999999</ele><time>2026-04-01T06:13:22.999Z</time></trkpt><trkpt lat="45.47007994193486" lon="9.17499949198938"><ele>124.80000000000001</ele><time>2026-04-01T06:13:23.999Z</time></trkpt><trkpt lat="45.47000792201147" lon="9.175095411226645"><ele>124.4</ele><time>2026-04-01T06:13:24.999Z</time></trkpt><trkpt lat="45.46993305217313" lon="9.17519626591868"><ele>124.0</ele><time>2026-04-01T06:13:25.999Z</time></trkpt><trkpt lat="45.46985765599037" lon="9.175298798959545"><ele>124.0</ele><time>2026-04-01T06:13:26.999Z</time></trkpt><trkpt lat="45.46977057714068" lon="9.1753979317969"><ele>124.0</ele><time>2026-04-01T06:13:27.999Z</time></trkpt><trkpt lat="45.46969282988886" lon="9.175495671762164"><ele>124.0</ele><time>2026-04-01T06:13:28.999Z</time></trkpt><trkpt lat="45.46961621609963" lon="9.175607556727764"><ele>124.0</ele><time>2026-04-01T06:13:29.999Z</time></trkpt><trkpt lat="45.46953009652457" lon="9.175720559362667"><ele>124.0</ele><time>2026-04-01T06:13:30.999Z</time></trkpt><trkpt lat="45.469430068018234" lon="9.17584130307573"><ele>124.75</ele><time>2026-04-01T06:13:31.999Z</time></trkpt><trkpt lat="45.469327211284664" lon="9.175967214893111"><ele>125.5</ele><time>2026-04-01T06:13:32.999Z</time></trkpt><trkpt lat="45.469227616108796" lon="9.176093464352668"><ele>126.25</ele><time>2026-04-01T06:13:33.999Z</time></trkpt><trkpt lat="45.46913942502959" lon="9.176208347714558"><ele>127.0</ele><time>2026-04-01T06:13:34.999Z</time></trkpt><trkpt lat="45.4690627969803" lon="9.176315904812808"><ele>127.00000000000001</ele><time>2026-04-01T06:13:35.999Z</time></trkpt><trkpt lat="45.468991424631085" lon="9.17640906010666"><ele>127.0</ele><time>2026-04-01T06:13:36.999Z</time></trkpt><trkpt lat="45.46894212199513" lon="9.176491769630852"><ele>127.0</ele><time>2026-04-01T06:13:37.999Z</time></trkpt><trkpt lat="45.46888706690054" lon="9.176588981153731"><ele>127.0</ele><time>2026-04-01T06:13:39.999Z</time></trkpt><trkpt lat="45.46880914135308" lon="9.176687984034361"><ele>127.00000000000001</ele><time>2026-04-01T06:13:41.999Z</time></trkpt><trkpt lat="45.46874703151127" lon="9.176752811194204"><ele>127.0</ele><time>2026-04-01T06:13:42.999Z</time></trkpt><trkpt lat="45.468693569669355" lon="9.17680593687796"><ele>125.75</ele><time>2026-04-01T06:13:43.999Z</time></trkpt><trkpt lat="45.468604043164056" lon="9.176896234672025"><ele>124.5</ele><time>2026-04-01T06:13:45.999Z</time></trkpt><trkpt lat="45.4685322436587" lon="9.176977437504098"><ele>123.25</ele><time>2026-04-01T06:13:47.999Z</time></trkpt><trkpt lat="45.46846987691377" lon="9.177081266972648"><ele>122.0</ele><time>2026-04-01T06:14:02.998Z</time></trkpt><trkpt lat="45.46832514026136" lon="9.176977948835"><ele>121.99999999999999</ele><time>2026-04-01T06:14:04.998Z</time></trkpt><trkpt lat="45.46826150790215" lon="9.17688467048469"><ele>122.0</ele><time>2026-04-01T06:14:05.998Z</time></trkpt><trkpt lat="45.468189512704136" lon="9.176801159163436"><ele>122.0</ele><time>2026-04-01T06:14:06.998Z</time></trkpt><trkpt lat="45.46812019072316" lon="9.176756546729639"><ele>122.0</ele><time>2026-04-01T06:14:07.998Z</time></trkpt><trkpt lat="45.46804733708698" lon="9.176764854590013"><ele>121.99999999999999</ele><time>2026-04-01T06:14:32.997Z</time></trkpt><trkpt lat="45.46798244197927" lon="9.176782602191757"><ele>122.0</ele><time>2026-04-01T06:14:34.997Z</time></trkpt><trkpt lat="45.46790254734607" lon="9.176529175844637"><ele>123.66666666666666</ele><time>2026-04-01T06:14:37Z</time></trkpt><trkpt lat="45.467905705914895" lon="9.176431143624896"><ele>125.33333333333333</ele><time>2026-04-01T06:14:38Z</time></trkpt><trkpt lat="45.467905401082355" lon="9.176321835435212"><ele>127.0</ele><time>2026-04-01T06:14:39Z</time></trkpt><trkpt lat="45.46789515177446" lon="9.176187073183021"><ele>128.66666666666666</ele><time>2026-04-01T06:14:40Z</time></trkpt><trkpt lat="45.46788742243006" lon="9.176053794776767"><ele>130.33333333333334</ele><time>2026-04-01T06:14:41Z</time></trkpt><trkpt lat="45.46787793221487" lon="9.175909315772625"><ele>132.0</ele><time>2026-04-01T06:14:42Z</time></trkpt><trkpt lat="45.46787216537789" lon="9.175756748577117"><ele>132.0</ele><time>2026-04-01T06:14:43Z</time></trkpt><trkpt lat="45.46786017399168" lon="9.17559824381382"><ele>132.0</ele><time>2026-04-01T06:14:44Z</time></trkpt><trkpt lat="45.46784865383937" lon="9.175462767918122"><ele>132.0</ele><time>2026-04-01T06:14:45Z</time></trkpt><trkpt lat="45.46784023177791" lon="9.175335675014706"><ele>132.0</ele><time>2026-04-01T06:14:46Z</time></trkpt><trkpt lat="45.46784551098827" lon="9.175226597863944"><ele>132.0</ele><time>2026-04-01T06:14:47Z</time></trkpt><trkpt lat="45.467844691664666" lon="9.1751070503028"><ele>132.0</ele><time>2026-04-01T06:14:49Z</time></trkpt><trkpt lat="45.4678500723085" lon="9.175198934035972"><ele>132.0</ele><time>2026-04-01T06:15:25.999Z</time></trkpt><trkpt lat="45.46785482764591" lon="9.175318802110374"><ele>132.0</ele><time>2026-04-01T06:15:28.999Z</time></trkpt><trkpt lat="45.46785886199265" lon="9.17541090544785"><ele>132.0</ele><time>2026-04-01T06:15:30.999Z</time></trkpt><trkpt lat="45.46786416807195" lon="9.175504980881634"><ele>132.0</ele><time>2026-04-01T06:15:34.999Z</time></trkpt></trkseg></trk></gpx>